Enchantment of the Seas — C6FZ7 — position and weather

sailwx.info

Track history (hours):
 
Tides and Currents Weather Stations Pressure Air Temp Water Temp Dewpoint Dewpoint Depression Visibility Wind Speed Wind Dir Waves Ship Positions

Enchantment of the Seas (Bahamas)

Last reported at 2020-Sep-29 06:57 UTC. Time now 2020-Sep-29 07:24 UTC.
Position N 18°13' W 063°22'.

Type: Passenger vessel. MMSI: 311733000.

Date/timePositionNaut miles runAvg speedWind from/ knotsBaromVisibWave heightAir tempDewpointWater temp
2020-Sep-29 06:57N 18°13' W 063°22'3 1.3
2020-Sep-29 04:54N 18°10' W 063°21'1 1.5
2020-Sep-29 04:30N 18°10' W 063°21'6 1.4
2020-Sep-29 00:19N 18°04' W 063°18'4 1.6
2020-Sep-28 21:59N 18°01' W 063°16'4 1.8
2020-Sep-28 19:55N 17°58' W 063°14'1 1.7
2020-Sep-28 19:26N 17°57' W 063°14'2 1.9
2020-Sep-28 18:21N 17°56' W 063°12'2 1.6
2020-Sep-28 17:24N 17°54' W 063°11'1 1.6
2020-Sep-28 16:54N 17°54' W 063°11'2 1.6
2020-Sep-28 15:55N 17°53' W 063°10'3 1.6
2020-Sep-28 14:00N 17°50' W 063°08'4 1.8
2020-Sep-28 11:52N 17°47' W 063°05'1 1.9
2020-Sep-28 11:28N 17°47' W 063°04'2 3.3
2020-Sep-28 10:55N 17°45' W 063°04'3 7.7
2020-Sep-28 10:28N 17°42' W 063°05'  
Track history (hours):
 
Tides and Currents Weather Stations Pressure Air Temp Water Temp Dewpoint Dewpoint Depression Visibility Wind Speed Wind Dir Waves Ship Positions

Enchantment of the Seas (Bahamas)

Last reported at 2020-Sep-29 06:57 UTC. Time now 2020-Sep-29 07:24 UTC.
Position N 18°13' W 063°22'.

Type: Passenger vessel. MMSI: 311733000.

Date/timePositionNaut miles runAvg speedWind from/ knotsBaromVisibWave heightAir tempDewpointWater temp
2020-Sep-29 06:57N 18°13' W 063°22'3 1.3
2020-Sep-29 04:54N 18°10' W 063°21'1 1.5
2020-Sep-29 04:30N 18°10' W 063°21'6 1.4
2020-Sep-29 00:19N 18°04' W 063°18'4 1.6
2020-Sep-28 21:59N 18°01' W 063°16'4 1.8
2020-Sep-28 19:55N 17°58' W 063°14'1 1.7
2020-Sep-28 19:26N 17°57' W 063°14'2 1.9
2020-Sep-28 18:21N 17°56' W 063°12'2 1.6
2020-Sep-28 17:24N 17°54' W 063°11'1 1.6
2020-Sep-28 16:54N 17°54' W 063°11'2 1.6
2020-Sep-28 15:55N 17°53' W 063°10'3 1.6
2020-Sep-28 14:00N 17°50' W 063°08'4 1.8
2020-Sep-28 11:52N 17°47' W 063°05'1 1.9
2020-Sep-28 11:28N 17°47' W 063°04'2 3.3
2020-Sep-28 10:55N 17°45' W 063°04'3 7.7
2020-Sep-28 10:28N 17°42' W 063°05'  

Dump ship's entire track history